sensor_id;sensor_type;location;lat;lon;timestamp;temperature;humidity
51579;DHT22;47998;53.242;6.386;2023-03-01T00:02:04;-4.20;99.90
51579;DHT22;47998;53.242;6.386;2023-03-01T00:04:30;-4.20;99.90
51579;DHT22;47998;53.242;6.386;2023-03-01T00:06:57;-4.20;99.90
51579;DHT22;47998;53.242;6.386;2023-03-01T00:09:23;-4.20;99.90
51579;DHT22;47998;53.242;6.386;2023-03-01T00:11:49;-4.10;99.90
51579;DHT22;47998;53.242;6.386;2023-03-01T00:14:15;-4.20;99.90
51579;DHT22;47998;53.242;6.386;2023-03-01T00:16:43;-4.20;99.90
51579;DHT22;47998;53.242;6.386;2023-03-01T00:19:13;-4.20;99.90
51579;DHT22;47998;53.242;6.386;2023-03-01T00:21:40;-4.20;99.90
51579;DHT22;47998;53.242;6.386;2023-03-01T00:24:07;-4.20;99.90
51579;DHT22;47998;53.242;6.386;2023-03-01T00:26:33;-4.20;99.90
51579;DHT22;47998;53.242;6.386;2023-03-01T00:28:59;-4.20;99.90
51579;DHT22;47998;53.242;6.386;2023-03-01T00:31:28;-4.20;99.90
51579;DHT22;47998;53.242;6.386;2023-03-01T00:33:56;-3.90;99.90
51579;DHT22;47998;53.242;6.386;2023-03-01T00:36:25;-4.10;99.90
51579;DHT22;47998;53.242;6.386;2023-03-01T00:38:51;-4.10;99.90
51579;DHT22;47998;53.242;6.386;2023-03-01T00:41:18;-4.10;99.90
51579;DHT22;47998;53.242;6.386;2023-03-01T00:43:45;-4.10;99.90
51579;DHT22;47998;53.242;6.386;2023-03-01T00:46:15;-4.10;99.90
51579;DHT22;47998;53.242;6.386;2023-03-01T00:48:42;-4.00;99.90
51579;DHT22;47998;53.242;6.386;2023-03-01T00:51:15;-4.00;99.90
51579;DHT22;47998;53.242;6.386;2023-03-01T00:53:41;-4.00;99.90
51579;DHT22;47998;53.242;6.386;2023-03-01T00:56:09;-4.00;99.90
51579;DHT22;47998;53.242;6.386;2023-03-01T00:58:35;-4.10;99.90
51579;DHT22;47998;53.242;6.386;2023-03-01T01:01:07;-4.10;99.90
51579;DHT22;47998;53.242;6.386;2023-03-01T01:03:53;-4.00;99.90
51579;DHT22;47998;53.242;6.386;2023-03-01T01:06:29;-3.80;99.90
51579;DHT22;47998;53.242;6.386;2023-03-01T01:08:56;-3.80;99.90
51579;DHT22;47998;53.242;6.386;2023-03-01T01:11:23;-3.90;99.90
51579;DHT22;47998;53.242;6.386;2023-03-01T01:13:50;-4.00;99.90
51579;DHT22;47998;53.242;6.386;2023-03-01T01:16:18;-4.10;99.90
51579;DHT22;47998;53.242;6.386;2023-03-01T01:18:44;-4.10;99.90
51579;DHT22;47998;53.242;6.386;2023-03-01T01:21:13;-4.10;99.90
51579;DHT22;47998;53.242;6.386;2023-03-01T01:23:40;-4.20;99.90
51579;DHT22;47998;53.242;6.386;2023-03-01T01:26:08;-4.20;99.90
51579;DHT22;47998;53.242;6.386;2023-03-01T01:28:35;-4.20;99.90
51579;DHT22;47998;53.242;6.386;2023-03-01T01:31:01;-4.10;99.90
51579;DHT22;47998;53.242;6.386;2023-03-01T01:33:27;-4.20;99.90
51579;DHT22;47998;53.242;6.386;2023-03-01T01:35:53;-4.20;99.90
51579;DHT22;47998;53.242;6.386;2023-03-01T01:38:19;-4.20;99.90
51579;DHT22;47998;53.242;6.386;2023-03-01T01:40:47;-4.20;99.90
51579;DHT22;47998;53.242;6.386;2023-03-01T01:45:43;-4.30;99.90
51579;DHT22;47998;53.242;6.386;2023-03-01T01:48:16;-4.40;99.90
51579;DHT22;47998;53.242;6.386;2023-03-01T01:50:42;-4.40;99.90
51579;DHT22;47998;53.242;6.386;2023-03-01T01:53:18;-4.50;99.90
51579;DHT22;47998;53.242;6.386;2023-03-01T01:55:53;-4.50;99.90
51579;DHT22;47998;53.242;6.386;2023-03-01T01:58:24;-4.50;99.90
51579;DHT22;47998;53.242;6.386;2023-03-01T02:00:52;-4.70;99.90
51579;DHT22;47998;53.242;6.386;2023-03-01T02:03:23;-4.80;99.90
51579;DHT22;47998;53.242;6.386;2023-03-01T02:08:16;-4.70;99.90
51579;DHT22;47998;53.242;6.386;2023-03-01T02:10:48;-4.70;99.90
51579;DHT22;47998;53.242;6.386;2023-03-01T02:13:15;-4.60;99.90
51579;DHT22;47998;53.242;6.386;2023-03-01T02:15:41;-4.60;99.90
51579;DHT22;47998;53.242;6.386;2023-03-01T02:18:11;-4.50;99.90
51579;DHT22;47998;53.242;6.386;2023-03-01T02:23:15;-4.60;99.90
51579;DHT22;47998;53.242;6.386;2023-03-01T02:30:40;-4.80;99.90
51579;DHT22;47998;53.242;6.386;2023-03-01T02:33:26;-4.80;99.90
51579;DHT22;47998;53.242;6.386;2023-03-01T02:35:53;-4.80;99.90
51579;DHT22;47998;53.242;6.386;2023-03-01T02:38:20;-4.70;99.90
51579;DHT22;47998;53.242;6.386;2023-03-01T02:40:47;-4.70;99.90
51579;DHT22;47998;53.242;6.386;2023-03-01T02:43:16;-4.70;99.90
51579;DHT22;47998;53.242;6.386;2023-03-01T02:45:53;-4.60;99.90
51579;DHT22;47998;53.242;6.386;2023-03-01T02:48:19;-4.50;99.90
51579;DHT22;47998;53.242;6.386;2023-03-01T02:53:39;-4.50;99.90
51579;DHT22;47998;53.242;6.386;2023-03-01T02:56:07;-4.50;99.90
51579;DHT22;47998;53.242;6.386;2023-03-01T02:58:42;-4.50;99.90
51579;DHT22;47998;53.242;6.386;2023-03-01T03:01:14;-4.50;99.90
51579;DHT22;47998;53.242;6.386;2023-03-01T03:03:41;-4.50;99.90
51579;DHT22;47998;53.242;6.386;2023-03-01T03:06:13;-4.50;99.90
51579;DHT22;47998;53.242;6.386;2023-03-01T03:08:39;-4.50;99.90
51579;DHT22;47998;53.242;6.386;2023-03-01T03:11:05;-4.60;99.90
51579;DHT22;47998;53.242;6.386;2023-03-01T03:13:31;-4.60;99.90
51579;DHT22;47998;53.242;6.386;2023-03-01T03:15:58;-4.60;99.90
51579;DHT22;47998;53.242;6.386;2023-03-01T03:18:24;-4.60;99.90
51579;DHT22;47998;53.242;6.386;2023-03-01T03:20:52;-4.60;99.90
51579;DHT22;47998;53.242;6.386;2023-03-01T03:23:20;-4.60;99.90
51579;DHT22;47998;53.242;6.386;2023-03-01T03:25:48;-4.70;99.90
51579;DHT22;47998;53.242;6.386;2023-03-01T03:28:15;-4.70;99.90
51579;DHT22;47998;53.242;6.386;2023-03-01T03:30:41;-4.80;99.90
51579;DHT22;47998;53.242;6.386;2023-03-01T03:33:09;-4.90;99.90
51579;DHT22;47998;53.242;6.386;2023-03-01T03:35:41;-5.00;99.90
51579;DHT22;47998;53.242;6.386;2023-03-01T03:38:11;-5.10;99.90
51579;DHT22;47998;53.242;6.386;2023-03-01T03:41:02;-5.10;99.90
51579;DHT22;47998;53.242;6.386;2023-03-01T03:43:34;-5.10;99.90
51579;DHT22;47998;53.242;6.386;2023-03-01T03:46:00;-5.00;99.90
51579;DHT22;47998;53.242;6.386;2023-03-01T03:48:27;-4.90;99.90
51579;DHT22;47998;53.242;6.386;2023-03-01T03:50:55;-5.00;99.90
51579;DHT22;47998;53.242;6.386;2023-03-01T03:53:23;-4.90;99.90
51579;DHT22;47998;53.242;6.386;2023-03-01T03:55:49;-4.80;99.90
51579;DHT22;47998;53.242;6.386;2023-03-01T03:58:15;-4.60;99.90
51579;DHT22;47998;53.242;6.386;2023-03-01T04:00:46;-4.50;99.90
51579;DHT22;47998;53.242;6.386;2023-03-01T04:03:14;-4.00;99.90
51579;DHT22;47998;53.242;6.386;2023-03-01T04:05:40;-4.30;99.90
51579;DHT22;47998;53.242;6.386;2023-03-01T04:08:07;-4.30;99.90
51579;DHT22;47998;53.242;6.386;2023-03-01T04:13:05;-4.30;99.90
51579;DHT22;47998;53.242;6.386;2023-03-01T04:15:34;-4.30;99.90
51579;DHT22;47998;53.242;6.386;2023-03-01T04:18:00;-4.30;99.90
51579;DHT22;47998;53.242;6.386;2023-03-01T04:20:29;-4.30;99.90
51579;DHT22;47998;53.242;6.386;2023-03-01T04:23:03;-4.40;99.90
51579;DHT22;47998;53.242;6.386;2023-03-01T04:28:29;-4.40;99.90
51579;DHT22;47998;53.242;6.386;2023-03-01T04:30:57;-4.40;99.90
51579;DHT22;47998;53.242;6.386;2023-03-01T04:33:24;-4.40;99.90
51579;DHT22;47998;53.242;6.386;2023-03-01T04:35:50;-4.40;99.90
51579;DHT22;47998;53.242;6.386;2023-03-01T04:38:17;-4.50;99.90
51579;DHT22;47998;53.242;6.386;2023-03-01T04:40:43;-4.50;99.90
51579;DHT22;47998;53.242;6.386;2023-03-01T04:43:10;-4.60;99.90
51579;DHT22;47998;53.242;6.386;2023-03-01T04:45:37;-4.70;99.90
51579;DHT22;47998;53.242;6.386;2023-03-01T04:48:03;-4.80;99.90
51579;DHT22;47998;53.242;6.386;2023-03-01T04:50:29;-4.80;99.90
51579;DHT22;47998;53.242;6.386;2023-03-01T04:52:55;-4.80;99.90
51579;DHT22;47998;53.242;6.386;2023-03-01T04:55:26;-4.90;99.90
51579;DHT22;47998;53.242;6.386;2023-03-01T04:57:52;-4.90;99.90
51579;DHT22;47998;53.242;6.386;2023-03-01T05:00:18;-5.00;99.90
51579;DHT22;47998;53.242;6.386;2023-03-01T05:02:49;-5.00;99.90
51579;DHT22;47998;53.242;6.386;2023-03-01T05:05:31;-5.00;99.90
51579;DHT22;47998;53.242;6.386;2023-03-01T05:08:00;-5.10;99.90
51579;DHT22;47998;53.242;6.386;2023-03-01T05:10:28;-5.10;99.90
51579;DHT22;47998;53.242;6.386;2023-03-01T05:12:58;-5.20;99.90
51579;DHT22;47998;53.242;6.386;2023-03-01T05:15:31;-5.20;99.90
51579;DHT22;47998;53.242;6.386;2023-03-01T05:17:59;-5.30;99.90
51579;DHT22;47998;53.242;6.386;2023-03-01T05:20:29;-5.40;99.90
51579;DHT22;47998;53.242;6.386;2023-03-01T05:22:57;-5.40;99.90
51579;DHT22;47998;53.242;6.386;2023-03-01T05:25:24;-5.50;99.90
51579;DHT22;47998;53.242;6.386;2023-03-01T05:27:51;-5.40;99.90
51579;DHT22;47998;53.242;6.386;2023-03-01T05:30:17;-5.50;99.90
51579;DHT22;47998;53.242;6.386;2023-03-01T05:32:46;-5.50;99.90
51579;DHT22;47998;53.242;6.386;2023-03-01T05:35:14;-5.50;99.90
51579;DHT22;47998;53.242;6.386;2023-03-01T05:37:46;-5.50;99.90
51579;DHT22;47998;53.242;6.386;2023-03-01T05:40:16;-5.60;99.90
51579;DHT22;47998;53.242;6.386;2023-03-01T05:42:54;-5.60;99.90
51579;DHT22;47998;53.242;6.386;2023-03-01T05:45:22;-5.70;99.90
51579;DHT22;47998;53.242;6.386;2023-03-01T05:47:48;-5.70;99.90
51579;DHT22;47998;53.242;6.386;2023-03-01T05:50:23;-5.70;99.90
51579;DHT22;47998;53.242;6.386;2023-03-01T05:52:51;-5.70;99.90
51579;DHT22;47998;53.242;6.386;2023-03-01T05:55:20;-5.80;99.90
51579;DHT22;47998;53.242;6.386;2023-03-01T05:57:48;-5.80;99.90
51579;DHT22;47998;53.242;6.386;2023-03-01T06:00:17;-5.80;99.90
51579;DHT22;47998;53.242;6.386;2023-03-01T06:02:43;-5.90;99.90
51579;DHT22;47998;53.242;6.386;2023-03-01T06:05:10;-5.90;99.90
51579;DHT22;47998;53.242;6.386;2023-03-01T06:07:37;-5.90;99.90
51579;DHT22;47998;53.242;6.386;2023-03-01T06:10:07;-5.90;99.90
51579;DHT22;47998;53.242;6.386;2023-03-01T06:12:35;-5.90;99.90
51579;DHT22;47998;53.242;6.386;2023-03-01T06:15:01;-5.90;99.90
51579;DHT22;47998;53.242;6.386;2023-03-01T06:17:32;-5.80;99.90
51579;DHT22;47998;53.242;6.386;2023-03-01T06:20:21;-5.90;99.90
51579;DHT22;47998;53.242;6.386;2023-03-01T06:22:47;-5.90;99.90
51579;DHT22;47998;53.242;6.386;2023-03-01T06:25:18;-6.00;99.90
51579;DHT22;47998;53.242;6.386;2023-03-01T06:27:45;-6.00;99.90
51579;DHT22;47998;53.242;6.386;2023-03-01T06:30:13;-6.00;99.90
51579;DHT22;47998;53.242;6.386;2023-03-01T06:32:40;-6.10;99.90
51579;DHT22;47998;53.242;6.386;2023-03-01T06:35:13;-6.10;99.90
51579;DHT22;47998;53.242;6.386;2023-03-01T06:37:40;-6.00;99.90
51579;DHT22;47998;53.242;6.386;2023-03-01T06:40:07;-6.00;99.90
51579;DHT22;47998;53.242;6.386;2023-03-01T06:42:39;-6.00;99.90
51579;DHT22;47998;53.242;6.386;2023-03-01T06:45:07;-6.00;99.90
51579;DHT22;47998;53.242;6.386;2023-03-01T06:47:33;-6.00;99.90
51579;DHT22;47998;53.242;6.386;2023-03-01T06:50:00;-6.00;99.90
51579;DHT22;47998;53.242;6.386;2023-03-01T06:52:26;-6.00;99.90
51579;DHT22;47998;53.242;6.386;2023-03-01T06:54:53;-6.00;99.90
51579;DHT22;47998;53.242;6.386;2023-03-01T06:57:18;-5.90;99.90
51579;DHT22;47998;53.242;6.386;2023-03-01T06:59:44;-5.80;99.90
51579;DHT22;47998;53.242;6.386;2023-03-01T07:02:11;-5.70;99.90
51579;DHT22;47998;53.242;6.386;2023-03-01T07:04:38;-5.60;99.90
51579;DHT22;47998;53.242;6.386;2023-03-01T07:07:03;-5.50;99.90
51579;DHT22;47998;53.242;6.386;2023-03-01T07:09:29;-5.50;99.90
51579;DHT22;47998;53.242;6.386;2023-03-01T07:11:56;-5.40;99.90
51579;DHT22;47998;53.242;6.386;2023-03-01T07:14:22;-5.30;99.90
51579;DHT22;47998;53.242;6.386;2023-03-01T07:16:50;-5.20;99.90
51579;DHT22;47998;53.242;6.386;2023-03-01T07:19:15;-5.20;99.90
51579;DHT22;47998;53.242;6.386;2023-03-01T07:21:41;-5.10;99.90
51579;DHT22;47998;53.242;6.386;2023-03-01T07:24:08;-5.00;99.90
51579;DHT22;47998;53.242;6.386;2023-03-01T07:26:33;-4.90;99.90
51579;DHT22;47998;53.242;6.386;2023-03-01T07:29:00;-4.80;99.90
51579;DHT22;47998;53.242;6.386;2023-03-01T07:31:26;-4.70;99.90
51579;DHT22;47998;53.242;6.386;2023-03-01T07:33:54;-4.60;99.90
51579;DHT22;47998;53.242;6.386;2023-03-01T07:36:20;-4.50;99.90
51579;DHT22;47998;53.242;6.386;2023-03-01T07:38:46;-4.40;99.90
51579;DHT22;47998;53.242;6.386;2023-03-01T07:41:12;-4.30;99.90
51579;DHT22;47998;53.242;6.386;2023-03-01T07:43:38;-4.10;99.90
51579;DHT22;47998;53.242;6.386;2023-03-01T07:46:04;-3.70;99.90
51579;DHT22;47998;53.242;6.386;2023-03-01T07:48:30;-4.00;99.90
51579;DHT22;47998;53.242;6.386;2023-03-01T07:51:01;-3.90;99.90
51579;DHT22;47998;53.242;6.386;2023-03-01T07:53:27;-3.80;99.90
51579;DHT22;47998;53.242;6.386;2023-03-01T07:56:12;-3.70;99.90
51579;DHT22;47998;53.242;6.386;2023-03-01T07:58:41;-3.60;99.90
51579;DHT22;47998;53.242;6.386;2023-03-01T08:01:09;-3.50;99.90
51579;DHT22;47998;53.242;6.386;2023-03-01T08:03:36;-3.40;99.90
51579;DHT22;47998;53.242;6.386;2023-03-01T08:06:04;-3.30;99.90
51579;DHT22;47998;53.242;6.386;2023-03-01T08:08:30;-3.20;99.90
51579;DHT22;47998;53.242;6.386;2023-03-01T08:10:57;-3.00;99.90
51579;DHT22;47998;53.242;6.386;2023-03-01T08:13:23;-2.80;99.90
51579;DHT22;47998;53.242;6.386;2023-03-01T08:15:49;-2.70;99.90
51579;DHT22;47998;53.242;6.386;2023-03-01T08:18:17;-2.50;99.90
51579;DHT22;47998;53.242;6.386;2023-03-01T08:20:42;-2.40;99.90
51579;DHT22;47998;53.242;6.386;2023-03-01T08:23:08;-2.30;99.90
51579;DHT22;47998;53.242;6.386;2023-03-01T08:25:34;-2.10;99.90
51579;DHT22;47998;53.242;6.386;2023-03-01T08:28:00;-1.50;99.90
51579;DHT22;47998;53.242;6.386;2023-03-01T08:30:26;-1.90;99.90
51579;DHT22;47998;53.242;6.386;2023-03-01T08:32:52;-1.70;99.90
51579;DHT22;47998;53.242;6.386;2023-03-01T08:35:18;-1.60;99.90
51579;DHT22;47998;53.242;6.386;2023-03-01T08:37:44;-1.40;99.90
51579;DHT22;47998;53.242;6.386;2023-03-01T08:40:10;-1.30;99.90
51579;DHT22;47998;53.242;6.386;2023-03-01T08:42:40;-1.10;99.90
51579;DHT22;47998;53.242;6.386;2023-03-01T08:45:09;-1.00;99.90
51579;DHT22;47998;53.242;6.386;2023-03-01T08:47:35;-0.80;99.90
51579;DHT22;47998;53.242;6.386;2023-03-01T08:50:01;-0.70;99.90
51579;DHT22;47998;53.242;6.386;2023-03-01T08:52:27;-0.60;99.90
51579;DHT22;47998;53.242;6.386;2023-03-01T08:54:53;-0.40;99.90
51579;DHT22;47998;53.242;6.386;2023-03-01T08:57:19;-0.30;99.90
51579;DHT22;47998;53.242;6.386;2023-03-01T08:59:44;-0.20;99.90
51579;DHT22;47998;53.242;6.386;2023-03-01T09:02:15;-0.10;99.90
51579;DHT22;47998;53.242;6.386;2023-03-01T09:04:42;0.10;99.90
51579;DHT22;47998;53.242;6.386;2023-03-01T09:07:08;0.30;99.90
51579;DHT22;47998;53.242;6.386;2023-03-01T09:09:34;0.60;99.90
51579;DHT22;47998;53.242;6.386;2023-03-01T09:12:01;0.70;99.90
51579;DHT22;47998;53.242;6.386;2023-03-01T09:14:27;0.90;99.90
51579;DHT22;47998;53.242;6.386;2023-03-01T09:16:53;1.00;99.90
51579;DHT22;47998;53.242;6.386;2023-03-01T09:19:19;1.10;99.90
51579;DHT22;47998;53.242;6.386;2023-03-01T09:21:45;1.20;99.90
51579;DHT22;47998;53.242;6.386;2023-03-01T09:24:19;1.40;99.90
51579;DHT22;47998;53.242;6.386;2023-03-01T09:26:46;1.50;99.90
51579;DHT22;47998;53.242;6.386;2023-03-01T09:29:12;1.60;99.90
51579;DHT22;47998;53.242;6.386;2023-03-01T09:31:38;1.90;99.90
51579;DHT22;47998;53.242;6.386;2023-03-01T09:34:04;2.40;99.90
51579;DHT22;47998;53.242;6.386;2023-03-01T09:36:30;3.30;99.90
51579;DHT22;47998;53.242;6.386;2023-03-01T09:39:02;4.00;99.90
51579;DHT22;47998;53.242;6.386;2023-03-01T09:41:49;4.80;99.90
51579;DHT22;47998;53.242;6.386;2023-03-01T09:44:20;5.30;99.90
51579;DHT22;47998;53.242;6.386;2023-03-01T09:46:50;5.90;99.90
51579;DHT22;47998;53.242;6.386;2023-03-01T09:49:22;6.40;99.90
51579;DHT22;47998;53.242;6.386;2023-03-01T09:52:25;6.80;99.90
51579;DHT22;47998;53.242;6.386;2023-03-01T09:54:55;7.30;99.90
51579;DHT22;47998;53.242;6.386;2023-03-01T09:57:36;7.80;99.90
51579;DHT22;47998;53.242;6.386;2023-03-01T10:02:41;8.40;99.90
51579;DHT22;47998;53.242;6.386;2023-03-01T10:10:52;9.50;99.90
51579;DHT22;47998;53.242;6.386;2023-03-01T10:16:41;9.50;99.90
51579;DHT22;47998;53.242;6.386;2023-03-01T10:19:20;9.60;99.90
51579;DHT22;47998;53.242;6.386;2023-03-01T10:21:48;9.30;99.90
51579;DHT22;47998;53.242;6.386;2023-03-01T10:24:20;9.30;99.90
51579;DHT22;47998;53.242;6.386;2023-03-01T10:26:55;9.30;99.90
51579;DHT22;47998;53.242;6.386;2023-03-01T10:29:31;9.50;99.90
51579;DHT22;47998;53.242;6.386;2023-03-01T10:31:59;9.90;99.90
51579;DHT22;47998;53.242;6.386;2023-03-01T10:34:31;10.00;99.90
51579;DHT22;47998;53.242;6.386;2023-03-01T10:37:18;10.10;99.90
51579;DHT22;47998;53.242;6.386;2023-03-01T10:42:46;10.20;99.90
51579;DHT22;47998;53.242;6.386;2023-03-01T10:50:31;10.20;99.90
51579;DHT22;47998;53.242;6.386;2023-03-01T10:53:02;10.30;99.90
51579;DHT22;47998;53.242;6.386;2023-03-01T10:55:37;10.10;99.90
51579;DHT22;47998;53.242;6.386;2023-03-01T10:58:21;10.20;99.90
51579;DHT22;47998;53.242;6.386;2023-03-01T11:00:54;10.30;99.90
51579;DHT22;47998;53.242;6.386;2023-03-01T11:05:55;9.80;99.90
51579;DHT22;47998;53.242;6.386;2023-03-01T11:08:41;9.40;99.90
51579;DHT22;47998;53.242;6.386;2023-03-01T11:16:36;9.60;99.90
51579;DHT22;47998;53.242;6.386;2023-03-01T11:21:41;9.80;99.90
51579;DHT22;47998;53.242;6.386;2023-03-01T11:24:14;9.60;99.90
51579;DHT22;47998;53.242;6.386;2023-03-01T11:26:47;9.60;99.90
51579;DHT22;47998;53.242;6.386;2023-03-01T11:29:38;9.70;99.90
51579;DHT22;47998;53.242;6.386;2023-03-01T11:32:08;10.00;99.90
51579;DHT22;47998;53.242;6.386;2023-03-01T11:34:53;10.20;99.90
51579;DHT22;47998;53.242;6.386;2023-03-01T11:37:54;10.10;99.90
51579;DHT22;47998;53.242;6.386;2023-03-01T11:40:25;10.20;99.90
51579;DHT22;47998;53.242;6.386;2023-03-01T11:48:37;10.70;99.90
51579;DHT22;47998;53.242;6.386;2023-03-01T11:51:12;10.60;99.90
51579;DHT22;47998;53.242;6.386;2023-03-01T11:53:54;10.20;99.90
51579;DHT22;47998;53.242;6.386;2023-03-01T11:59:20;10.20;99.90
51579;DHT22;47998;53.242;6.386;2023-03-01T12:07:41;10.40;99.90
51579;DHT22;47998;53.242;6.386;2023-03-01T12:10:23;10.40;99.90
51579;DHT22;47998;53.242;6.386;2023-03-01T12:24:14;9.50;99.90
51579;DHT22;47998;53.242;6.386;2023-03-01T12:27:17;9.40;99.90
51579;DHT22;47998;53.242;6.386;2023-03-01T12:30:05;9.80;99.90
51579;DHT22;47998;53.242;6.386;2023-03-01T12:32:40;9.80;99.90
51579;DHT22;47998;53.242;6.386;2023-03-01T12:46:58;10.40;99.90
51579;DHT22;47998;53.242;6.386;2023-03-01T12:52:55;10.50;99.90
51579;DHT22;47998;53.242;6.386;2023-03-01T12:55:37;10.90;99.90
51579;DHT22;47998;53.242;6.386;2023-03-01T12:58:33;11.00;99.90
51579;DHT22;47998;53.242;6.386;2023-03-01T13:09:39;10.90;99.90
51579;DHT22;47998;53.242;6.386;2023-03-01T13:15:28;11.20;99.90
51579;DHT22;47998;53.242;6.386;2023-03-01T13:17:55;11.40;99.90
51579;DHT22;47998;53.242;6.386;2023-03-01T13:20:31;11.40;99.90
51579;DHT22;47998;53.242;6.386;2023-03-01T13:33:53;11.70;99.90
51579;DHT22;47998;53.242;6.386;2023-03-01T13:38:56;12.00;99.90
51579;DHT22;47998;53.242;6.386;2023-03-01T13:44:33;12.20;99.90
51579;DHT22;47998;53.242;6.386;2023-03-01T13:47:14;12.50;99.90
51579;DHT22;47998;53.242;6.386;2023-03-01T13:54:55;12.90;99.90
51579;DHT22;47998;53.242;6.386;2023-03-01T13:57:26;13.20;99.90
51579;DHT22;47998;53.242;6.386;2023-03-01T13:59:54;13.60;99.90
51579;DHT22;47998;53.242;6.386;2023-03-01T14:02:20;13.70;99.90
51579;DHT22;47998;53.242;6.386;2023-03-01T14:04:57;13.50;99.90
51579;DHT22;47998;53.242;6.386;2023-03-01T14:07:24;13.80;99.90
51579;DHT22;47998;53.242;6.386;2023-03-01T14:10:11;13.60;99.90
51579;DHT22;47998;53.242;6.386;2023-03-01T14:12:49;13.00;99.90
51579;DHT22;47998;53.242;6.386;2023-03-01T14:15:22;12.90;99.90
51579;DHT22;47998;53.242;6.386;2023-03-01T14:18:21;12.50;99.90
51579;DHT22;47998;53.242;6.386;2023-03-01T14:20:53;12.70;99.90
51579;DHT22;47998;53.242;6.386;2023-03-01T14:23:23;12.70;99.90
51579;DHT22;47998;53.242;6.386;2023-03-01T14:25:54;13.00;99.90
51579;DHT22;47998;53.242;6.386;2023-03-01T14:28:26;13.10;99.90
51579;DHT22;47998;53.242;6.386;2023-03-01T14:30:55;13.00;99.90
51579;DHT22;47998;53.242;6.386;2023-03-01T14:35:58;11.70;99.90
51579;DHT22;47998;53.242;6.386;2023-03-01T14:38:31;11.10;99.90
51579;DHT22;47998;53.242;6.386;2023-03-01T14:41:02;11.10;99.90
51579;DHT22;47998;53.242;6.386;2023-03-01T14:43:29;11.30;99.90
51579;DHT22;47998;53.242;6.386;2023-03-01T14:45:56;11.50;99.90
51579;DHT22;47998;53.242;6.386;2023-03-01T14:48:23;11.70;99.90
51579;DHT22;47998;53.242;6.386;2023-03-01T14:50:50;12.10;99.90
51579;DHT22;47998;53.242;6.386;2023-03-01T14:53:24;12.40;99.90
51579;DHT22;47998;53.242;6.386;2023-03-01T14:55:53;12.70;99.90
51579;DHT22;47998;53.242;6.386;2023-03-01T14:58:24;12.60;99.90
51579;DHT22;47998;53.242;6.386;2023-03-01T15:00:56;12.40;99.90
51579;DHT22;47998;53.242;6.386;2023-03-01T15:03:36;12.10;99.90
51579;DHT22;47998;53.242;6.386;2023-03-01T15:06:06;12.00;99.90
51579;DHT22;47998;53.242;6.386;2023-03-01T15:08:36;11.80;99.90
51579;DHT22;47998;53.242;6.386;2023-03-01T15:11:05;11.70;99.90
51579;DHT22;47998;53.242;6.386;2023-03-01T15:13:33;11.90;99.90
51579;DHT22;47998;53.242;6.386;2023-03-01T15:16:05;11.90;99.90
51579;DHT22;47998;53.242;6.386;2023-03-01T15:18:32;11.90;99.90
51579;DHT22;47998;53.242;6.386;2023-03-01T15:23:56;11.90;99.90
51579;DHT22;47998;53.242;6.386;2023-03-01T15:26:31;12.00;99.90
51579;DHT22;47998;53.242;6.386;2023-03-01T15:28:59;11.70;99.90
51579;DHT22;47998;53.242;6.386;2023-03-01T15:31:32;11.60;99.90
51579;DHT22;47998;53.242;6.386;2023-03-01T15:36:47;11.50;99.90
51579;DHT22;47998;53.242;6.386;2023-03-01T15:39:41;11.30;99.90
51579;DHT22;47998;53.242;6.386;2023-03-01T15:42:12;11.70;99.90
51579;DHT22;47998;53.242;6.386;2023-03-01T15:44:40;11.50;99.90
51579;DHT22;47998;53.242;6.386;2023-03-01T15:47:27;11.30;99.90
51579;DHT22;47998;53.242;6.386;2023-03-01T15:49:54;11.00;99.90
51579;DHT22;47998;53.242;6.386;2023-03-01T15:52:40;10.70;99.90
51579;DHT22;47998;53.242;6.386;2023-03-01T15:55:21;10.60;99.90
51579;DHT22;47998;53.242;6.386;2023-03-01T15:57:48;10.40;99.90
51579;DHT22;47998;53.242;6.386;2023-03-01T16:00:15;10.20;99.90
51579;DHT22;47998;53.242;6.386;2023-03-01T16:02:43;9.80;99.90
51579;DHT22;47998;53.242;6.386;2023-03-01T16:08:01;9.30;99.90
51579;DHT22;47998;53.242;6.386;2023-03-01T16:10:28;9.00;99.90
51579;DHT22;47998;53.242;6.386;2023-03-01T16:12:57;8.80;99.90
51579;DHT22;47998;53.242;6.386;2023-03-01T16:15:26;8.70;99.90
51579;DHT22;47998;53.242;6.386;2023-03-01T16:17:55;8.50;99.90
51579;DHT22;47998;53.242;6.386;2023-03-01T16:20:24;8.30;99.90
51579;DHT22;47998;53.242;6.386;2023-03-01T16:22:51;8.20;99.90
51579;DHT22;47998;53.242;6.386;2023-03-01T16:25:18;8.10;99.90
51579;DHT22;47998;53.242;6.386;2023-03-01T16:27:49;8.00;99.90
51579;DHT22;47998;53.242;6.386;2023-03-01T16:30:23;7.80;99.90
51579;DHT22;47998;53.242;6.386;2023-03-01T16:32:50;7.60;99.90
51579;DHT22;47998;53.242;6.386;2023-03-01T16:35:20;7.50;99.90
51579;DHT22;47998;53.242;6.386;2023-03-01T16:37:47;7.30;99.90
51579;DHT22;47998;53.242;6.386;2023-03-01T16:40:18;7.10;99.90
51579;DHT22;47998;53.242;6.386;2023-03-01T16:42:47;6.90;99.90
51579;DHT22;47998;53.242;6.386;2023-03-01T16:45:15;6.80;99.90
51579;DHT22;47998;53.242;6.386;2023-03-01T16:47:41;6.60;99.90
51579;DHT22;47998;53.242;6.386;2023-03-01T16:50:07;6.40;99.90
51579;DHT22;47998;53.242;6.386;2023-03-01T16:52:36;6.20;99.90
51579;DHT22;47998;53.242;6.386;2023-03-01T16:55:03;6.10;99.90
51579;DHT22;47998;53.242;6.386;2023-03-01T16:57:30;5.90;99.90
51579;DHT22;47998;53.242;6.386;2023-03-01T16:59:56;5.80;99.90
51579;DHT22;47998;53.242;6.386;2023-03-01T17:02:24;5.60;99.90
51579;DHT22;47998;53.242;6.386;2023-03-01T17:04:54;5.40;99.90
51579;DHT22;47998;53.242;6.386;2023-03-01T17:07:20;5.20;99.90
51579;DHT22;47998;53.242;6.386;2023-03-01T17:09:46;5.00;99.90
51579;DHT22;47998;53.242;6.386;2023-03-01T17:12:15;4.90;99.90
51579;DHT22;47998;53.242;6.386;2023-03-01T17:14:46;4.70;99.90
51579;DHT22;47998;53.242;6.386;2023-03-01T17:17:12;4.60;99.90
51579;DHT22;47998;53.242;6.386;2023-03-01T17:19:38;4.50;99.90
51579;DHT22;47998;53.242;6.386;2023-03-01T17:22:13;4.40;99.90
51579;DHT22;47998;53.242;6.386;2023-03-01T17:24:40;4.30;99.90
51579;DHT22;47998;53.242;6.386;2023-03-01T17:27:06;4.20;99.90
51579;DHT22;47998;53.242;6.386;2023-03-01T17:29:37;4.30;99.90
51579;DHT22;47998;53.242;6.386;2023-03-01T17:32:03;4.20;99.90
51579;DHT22;47998;53.242;6.386;2023-03-01T17:34:32;4.10;99.90
51579;DHT22;47998;53.242;6.386;2023-03-01T17:36:59;4.10;99.90
51579;DHT22;47998;53.242;6.386;2023-03-01T17:39:25;4.10;99.90
51579;DHT22;47998;53.242;6.386;2023-03-01T17:41:57;4.00;99.90
51579;DHT22;47998;53.242;6.386;2023-03-01T17:44:25;4.10;99.90
51579;DHT22;47998;53.242;6.386;2023-03-01T17:46:51;3.90;99.90
51579;DHT22;47998;53.242;6.386;2023-03-01T17:49:19;3.90;99.90
51579;DHT22;47998;53.242;6.386;2023-03-01T17:51:47;3.80;99.90
51579;DHT22;47998;53.242;6.386;2023-03-01T17:54:13;3.70;99.90
51579;DHT22;47998;53.242;6.386;2023-03-01T17:56:39;3.70;99.90
51579;DHT22;47998;53.242;6.386;2023-03-01T17:59:06;3.60;99.90
51579;DHT22;47998;53.242;6.386;2023-03-01T18:01:32;3.50;99.90
51579;DHT22;47998;53.242;6.386;2023-03-01T18:04:00;3.50;99.90
51579;DHT22;47998;53.242;6.386;2023-03-01T18:06:26;3.40;99.90
51579;DHT22;47998;53.242;6.386;2023-03-01T18:08:55;3.30;99.90